Time;durP1;ratioP1;P1;durP2;ratioP2;P2;SDS_P1;SDS_P2;PMS_P1;PMS_P2;Temp;Humidity;BMP_temperature;BMP_pressure;BME280_temperature;BME280_humidity;BME280_pressure;Samples;Min_cycle;Max_cycle;Signal;HPM_P1;HPM_P2
2023/08/28 00:02:10;;;;;;;4.47;2.00;;;;;;;13.35;100.00;100734.84;6274552;28;20187;-71
2023/08/28 00:05:12;;;;;;;4.07;2.15;;;;;;;13.27;100.00;100736.31;6273158;28;20049;-70
2023/08/28 00:08:13;;;;;;;2.33;1.88;;;;;;;13.39;100.00;100738.97;6278251;28;20048;-70
2023/08/28 00:11:16;;;;;;;4.28;2.20;;;;;;;13.42;100.00;100735.28;6325007;22;20052;-74
2023/08/28 00:14:17;;;;;;;2.92;1.80;;;;;;;13.41;100.00;100733.59;6327599;28;20060;-74
2023/08/28 00:17:18;;;;;;;4.05;1.90;;;;;;;13.38;100.00;100732.00;6327829;28;20044;-74
2023/08/28 00:20:20;;;;;;;3.47;1.98;;;;;;;13.26;100.00;100737.22;6327640;28;20051;-74
2023/08/28 00:23:21;;;;;;;3.22;2.45;;;;;;;13.31;100.00;100743.91;6341137;28;20054;-73
2023/08/28 00:26:24;;;;;;;2.45;2.05;;;;;;;13.30;100.00;100738.72;6352611;28;20458;-74
2023/08/28 00:29:26;;;;;;;3.15;2.47;;;;;;;13.21;100.00;100745.41;6352724;28;20356;-74
2023/08/28 00:32:27;;;;;;;4.47;2.80;;;;;;;13.19;100.00;100728.84;6352713;28;20055;-74
2023/08/28 00:35:29;;;;;;;5.95;3.03;;;;;;;13.19;100.00;100721.75;6352276;28;20329;-74
2023/08/28 00:38:30;;;;;;;4.00;2.70;;;;;;;13.24;100.00;100713.59;6351621;28;20058;-74
2023/08/28 00:41:36;;;;;;;8.15;3.08;;;;;;;13.24;100.00;100704.81;6352357;28;20051;-74
2023/08/28 00:44:37;;;;;;;3.78;2.67;;;;;;;13.20;100.00;100706.78;6352340;28;20051;-74
2023/08/28 00:47:40;;;;;;;4.45;2.75;;;;;;;13.14;100.00;100708.03;6352341;28;20047;-74
2023/08/28 00:50:41;;;;;;;4.38;2.47;;;;;;;13.20;100.00;100717.31;6352264;28;20063;-74
2023/08/28 00:53:43;;;;;;;3.22;2.88;;;;;;;13.17;100.00;100718.38;6352187;28;20055;-74
2023/08/28 00:56:47;;;;;;;5.75;2.88;;;;;;;13.20;100.00;100723.44;6352074;28;20052;-74
2023/08/28 00:59:48;;;;;;;4.28;2.60;;;;;;;13.11;100.00;100720.56;6352023;28;20048;-74
2023/08/28 01:02:50;;;;;;;7.05;3.08;;;;;;;13.12;100.00;100731.00;6344903;28;20044;-74
2023/08/28 01:06:01;;;;;;;4.30;3.20;;;;;;;13.15;100.00;100745.81;6343919;28;20403;-74
2023/08/28 01:09:08;;;;;;;4.57;2.97;;;;;;;13.19;100.00;100748.16;6352092;28;20052;-74
2023/08/28 01:12:17;;;;;;;5.55;3.10;;;;;;;13.16;100.00;100744.84;6351570;28;20051;-74
2023/08/28 01:15:21;;;;;;;5.05;3.15;;;;;;;13.16;100.00;100743.06;6351560;28;20055;-74
2023/08/28 01:18:23;;;;;;;4.32;3.17;;;;;;;13.19;100.00;100734.13;6347309;28;20470;-74
2023/08/28 01:21:25;;;;;;;7.88;3.05;;;;;;;13.14;100.00;100731.78;6336212;28;20040;-74
2023/08/28 01:24:31;;;;;;;5.97;3.67;;;;;;;13.15;100.00;100737.88;6342678;28;20052;-74
2023/08/28 01:27:34;;;;;;;8.13;3.50;;;;;;;13.15;100.00;100729.97;6351249;28;20384;-74
2023/08/28 01:30:35;;;;;;;5.45;3.65;;;;;;;13.08;100.00;100748.00;6351183;28;20051;-74
2023/08/28 01:33:37;;;;;;;3.92;2.80;;;;;;;13.10;100.00;100746.09;6351289;28;20040;-74
2023/08/28 01:36:49;;;;;;;6.13;3.25;;;;;;;13.06;100.00;100749.03;6348810;28;20347;-74
2023/08/28 01:39:56;;;;;;;6.13;3.83;;;;;;;13.05;100.00;100765.81;6326478;28;20044;-74
2023/08/28 01:43:02;;;;;;;5.68;3.28;;;;;;;13.02;100.00;100764.22;6335562;28;20048;-74
2023/08/28 01:46:04;;;;;;;5.18;3.85;;;;;;;12.94;100.00;100764.72;6350919;28;20047;-74
2023/08/28 01:49:05;;;;;;;6.15;4.00;;;;;;;12.68;100.00;100760.22;6340346;28;20443;-74
2023/08/28 01:52:07;;;;;;;5.88;4.30;;;;;;;12.78;100.00;100761.31;6345271;28;20126;-74
2023/08/28 01:55:09;;;;;;;7.97;4.45;;;;;;;12.84;100.00;100765.38;6350545;28;20043;-74
2023/08/28 01:58:12;;;;;;;6.53;3.78;;;;;;;12.86;100.00;100758.22;6350976;28;20051;-74
2023/08/28 02:01:20;;;;;;;7.95;4.45;;;;;;;12.89;100.00;100753.56;6346847;28;20448;-74
2023/08/28 02:04:21;;;;;;;7.13;4.53;;;;;;;12.95;100.00;100752.38;6337701;28;20048;-74
2023/08/28 02:07:22;;;;;;;8.50;4.28;;;;;;;13.03;100.00;100750.06;6350547;28;20059;-74
2023/08/28 02:10:24;;;;;;;11.35;4.93;;;;;;;12.93;100.00;100747.16;6350344;28;20044;-74
2023/08/28 02:13:26;;;;;;;8.02;4.38;;;;;;;13.00;100.00;100744.16;6350639;28;20044;-74
2023/08/28 02:16:28;;;;;;;7.50;5.40;;;;;;;12.88;100.00;100745.75;6350175;28;20181;-75
2023/08/28 02:19:29;;;;;;;10.30;5.22;;;;;;;12.81;100.00;100747.09;6350660;28;20048;-74
2023/08/28 02:22:30;;;;;;;7.88;4.97;;;;;;;12.75;100.00;100745.69;6350546;28;20039;-74
2023/08/28 02:25:32;;;;;;;8.93;5.10;;;;;;;12.90;100.00;100746.53;6346754;28;20443;-74
2023/08/28 02:28:35;;;;;;;11.85;5.72;;;;;;;13.00;100.00;100754.72;6341632;28;20372;-74
2023/08/28 02:31:36;;;;;;;10.57;6.15;;;;;;;12.97;100.00;100758.38;6349028;28;20344;-74
2023/08/28 02:34:37;;;;;;;8.85;5.05;;;;;;;12.91;100.00;100750.88;6340321;28;20047;-74
2023/08/28 02:37:39;;;;;;;8.25;5.32;;;;;;;12.84;100.00;100757.44;6350140;28;20047;-74
2023/08/28 02:40:40;;;;;;;13.05;4.63;;;;;;;12.75;100.00;100765.94;6350361;28;20435;-74
2023/08/28 02:43:43;;;;;;;9.32;5.45;;;;;;;12.66;100.00;100759.44;6350134;28;20044;-74
2023/08/28 02:46:44;;;;;;;8.95;5.55;;;;;;;12.70;100.00;100771.50;6350056;28;20050;-74
2023/08/28 02:49:47;;;;;;;16.80;5.30;;;;;;;12.80;100.00;100771.75;6350051;28;20054;-74
2023/08/28 02:52:48;;;;;;;8.95;5.25;;;;;;;12.86;100.00;100776.69;6350164;28;20046;-74
2023/08/28 02:56:10;;;;;;;8.35;5.03;;;;;;;12.94;100.00;100782.31;6349751;28;20379;-74
2023/08/28 02:59:13;;;;;;;15.02;5.28;;;;;;;12.91;100.00;100779.88;6350248;28;20043;-74
2023/08/28 03:02:15;;;;;;;7.80;4.28;;;;;;;12.91;100.00;100793.06;6352717;28;20044;-74
2023/08/28 03:05:17;;;;;;;8.15;4.72;;;;;;;12.87;100.00;100802.09;6354326;28;20055;-74
2023/08/28 03:08:18;;;;;;;6.65;4.35;;;;;;;12.87;100.00;100795.03;6354723;28;20055;-74
2023/08/28 03:11:20;;;;;;;8.07;4.72;;;;;;;12.89;100.00;100792.28;6354579;28;20051;-74
2023/08/28 03:14:22;;;;;;;8.68;5.47;;;;;;;12.97;100.00;100799.75;6354568;28;20130;-74
2023/08/28 03:17:24;;;;;;;10.23;4.38;;;;;;;13.00;100.00;100799.56;6354516;28;20059;-74
2023/08/28 03:20:25;;;;;;;6.95;4.45;;;;;;;12.94;100.00;100801.63;6354425;28;20055;-74
2023/08/28 03:23:26;;;;;;;8.52;5.28;;;;;;;12.90;100.00;100804.56;6354586;28;20451;-74
2023/08/28 03:26:29;;;;;;;10.55;6.03;;;;;;;12.85;100.00;100802.22;6354248;28;20059;-74
2023/08/28 03:29:32;;;;;;;9.15;5.50;;;;;;;12.86;100.00;100796.00;6354109;28;20058;-74
2023/08/28 03:32:33;;;;;;;10.80;5.50;;;;;;;12.84;100.00;100789.94;6354044;28;20447;-74
2023/08/28 03:35:35;;;;;;;10.30;5.53;;;;;;;12.85;100.00;100798.69;6353769;28;20054;-74
2023/08/28 03:38:36;;;;;;;10.68;5.13;;;;;;;12.78;100.00;100794.75;6349780;28;20359;-74
2023/08/28 03:41:38;;;;;;;9.88;5.65;;;;;;;12.77;100.00;100804.47;6344115;28;20047;-74
2023/08/28 03:44:41;;;;;;;9.90;6.35;;;;;;;12.67;100.00;100822.66;6353787;28;20055;-73
2023/08/28 03:47:42;;;;;;;10.40;6.25;;;;;;;12.68;100.00;100816.44;6351946;28;20348;-74
2023/08/28 03:50:43;;;;;;;8.68;5.18;;;;;;;12.80;100.00;100822.72;6345267;28;20051;-74
2023/08/28 03:53:45;;;;;;;10.63;5.57;;;;;;;12.85;100.00;100827.72;6339760;28;20051;-74
2023/08/28 03:56:46;;;;;;;10.70;6.90;;;;;;;12.80;100.00;100822.72;6353141;28;20129;-74
2023/08/28 03:59:49;;;;;;;12.50;6.05;;;;;;;12.76;100.00;100820.38;6353584;28;20052;-74
2023/08/28 04:02:51;;;;;;;12.77;6.40;;;;;;;12.70;100.00;100805.78;6353355;28;20044;-74
2023/08/28 04:05:52;;;;;;;16.00;6.82;;;;;;;12.56;100.00;100811.03;6353276;28;20055;-74
2023/08/28 04:08:54;;;;;;;10.90;6.20;;;;;;;12.68;100.00;100803.25;6353353;28;20051;-74
2023/08/28 04:11:55;;;;;;;10.70;7.03;;;;;;;12.72;100.00;100795.13;6352824;28;20462;-74
2023/08/28 04:14:58;;;;;;;10.77;6.30;;;;;;;12.74;100.00;100793.25;6352828;28;20052;-74
2023/08/28 04:18:00;;;;;;;12.13;6.80;;;;;;;12.70;100.00;100798.72;6353285;28;20048;-74
2023/08/28 04:21:03;;;;;;;10.93;6.32;;;;;;;12.74;100.00;100795.88;6352739;28;20051;-74
2023/08/28 04:24:05;;;;;;;13.48;6.80;;;;;;;12.71;100.00;100791.63;6353132;28;20047;-74
2023/08/28 04:27:06;;;;;;;12.50;6.05;;;;;;;12.74;100.00;100793.25;6341631;28;20071;-72
2023/08/28 04:30:10;;;;;;;11.60;7.00;;;;;;;12.68;100.00;100784.78;6315700;28;20049;-72
2023/08/28 04:33:12;;;;;;;11.57;6.72;;;;;;;12.56;100.00;100782.88;6313345;28;20049;-73
2023/08/28 04:36:13;;;;;;;11.27;7.15;;;;;;;12.49;100.00;100773.69;6323239;28;20047;-73
2023/08/28 04:39:15;;;;;;;13.02;7.90;;;;;;;12.44;100.00;100770.44;6318111;28;20360;-73
2023/08/28 04:42:16;;;;;;;19.40;7.85;;;;;;;12.31;100.00;100782.66;6314405;28;20060;-73
2023/08/28 04:45:19;;;;;;;13.70;7.45;;;;;;;12.24;100.00;100779.56;6315122;28;20071;-73
2023/08/28 04:48:21;;;;;;;18.23;8.07;;;;;;;12.35;100.00;100779.78;6303715;28;20052;-74
2023/08/28 04:51:22;;;;;;;13.02;7.85;;;;;;;12.38;100.00;100782.22;6301733;28;20376;-73
2023/08/28 04:54:24;;;;;;;14.63;7.45;;;;;;;12.32;100.00;100779.97;6301565;28;20059;-74
2023/08/28 04:57:25;;;;;;;15.38;7.47;;;;;;;12.27;100.00;100775.91;6301664;28;20052;-74
2023/08/28 05:00:28;;;;;;;16.95;9.60;;;;;;;12.23;100.00;100766.50;6301506;28;20056;-74
2023/08/28 05:03:29;;;;;;;16.38;8.73;;;;;;;12.14;100.00;100767.88;6301695;28;20048;-74
2023/08/28 05:06:31;;;;;;;16.45;8.68;;;;;;;12.11;100.00;100770.69;6301307;28;20059;-74
2023/08/28 05:09:32;;;;;;;14.90;8.32;;;;;;;12.16;100.00;100771.25;6301274;28;20048;-74
2023/08/28 05:12:33;;;;;;;15.38;8.65;;;;;;;12.15;100.00;100769.56;6301003;28;20045;-74
2023/08/28 05:15:36;;;;;;;16.73;9.05;;;;;;;12.15;100.00;100764.31;6300840;28;20360;-74
2023/08/28 05:18:37;;;;;;;13.82;8.77;;;;;;;12.07;100.00;100759.47;6301288;28;20056;-74
2023/08/28 05:21:39;;;;;;;21.33;9.43;;;;;;;12.14;100.00;100757.34;6300997;28;20060;-74
2023/08/28 05:24:40;;;;;;;18.58;9.07;;;;;;;12.05;100.00;100753.47;6300284;28;20049;-74
2023/08/28 05:27:42;;;;;;;17.00;9.70;;;;;;;12.02;100.00;100747.53;6300875;28;20052;-74
2023/08/28 05:30:45;;;;;;;17.05;9.48;;;;;;;12.11;100.00;100755.72;6300755;28;20456;-74
2023/08/28 05:33:46;;;;;;;24.10;10.32;;;;;;;12.18;100.00;100753.59;6300681;28;20052;-74
2023/08/28 05:36:47;;;;;;;16.77;9.25;;;;;;;12.21;100.00;100745.47;6300482;28;20440;-73
2023/08/28 05:39:50;;;;;;;21.27;9.32;;;;;;;12.18;100.00;100750.97;6326391;28;20047;-74
2023/08/28 05:42:51;;;;;;;21.75;9.93;;;;;;;12.14;100.00;100762.63;6334142;28;20055;-74
2023/08/28 05:45:54;;;;;;;16.10;8.93;;;;;;;12.19;100.00;100763.19;6350866;28;20055;-73
2023/08/28 05:48:55;;;;;;;16.83;9.73;;;;;;;12.33;100.00;100778.16;6345829;28;20376;-74
2023/08/28 05:51:57;;;;;;;14.63;9.27;;;;;;;12.24;100.00;100782.19;6343208;28;20055;-74
2023/08/28 05:54:58;;;;;;;17.38;9.32;;;;;;;12.40;100.00;100785.63;6350457;28;20043;-73
2023/08/28 05:57:59;;;;;;;17.77;9.40;;;;;;;12.49;100.00;100793.88;6351006;28;20044;-74
2023/08/28 06:01:03;;;;;;;19.65;9.52;;;;;;;12.39;100.00;100807.63;6336606;28;20360;-74
2023/08/28 06:04:04;;;;;;;20.50;8.82;;;;;;;12.44;100.00;100809.97;6350858;28;20055;-74
2023/08/28 06:07:06;;;;;;;17.45;8.50;;;;;;;12.61;100.00;100820.38;6350401;28;20047;-74
2023/08/28 06:13:10;;;;;;;15.50;8.57;;;;;;;12.77;100.00;100817.66;6296305;28;20044;-69
2023/08/28 06:16:13;;;;;;;16.20;8.77;;;;;;;12.79;100.00;100828.09;6299927;28;20044;-70
2023/08/28 06:19:14;;;;;;;16.80;9.52;;;;;;;12.79;100.00;100823.66;6296878;28;20456;-69
2023/08/28 06:22:16;;;;;;;16.58;9.07;;;;;;;12.80;100.00;100832.41;6316992;28;20352;-69
2023/08/28 06:25:17;;;;;;;17.15;9.27;;;;;;;12.86;100.00;100835.56;6345304;28;20059;-69
2023/08/28 06:28:19;;;;;;;14.43;7.70;;;;;;;12.81;100.00;100842.03;6350609;28;20055;-70
2023/08/28 06:31:21;;;;;;;15.88;8.15;;;;;;;12.93;100.00;100844.75;6350191;28;20043;-69
2023/08/28 06:34:23;;;;;;;16.77;7.50;;;;;;;13.02;100.00;100850.41;6351286;28;20047;-69
2023/08/28 06:37:25;;;;;;;14.02;7.43;;;;;;;13.10;100.00;100853.44;6355463;28;20052;-69
2023/08/28 06:40:26;;;;;;;13.88;7.22;;;;;;;13.17;100.00;100855.59;6355508;28;20489;-69
2023/08/28 06:43:30;;;;;;;14.45;7.00;;;;;;;13.23;100.00;100849.13;6355440;28;20047;-69
2023/08/28 06:46:33;;;;;;;13.52;7.15;;;;;;;13.21;100.00;100849.16;6355285;28;20052;-69
2023/08/28 06:49:34;;;;;;;16.08;7.85;;;;;;;13.32;100.00;100842.41;6355411;28;20048;-69
2023/08/28 06:52:36;;;;;;;12.13;7.53;;;;;;;13.35;100.00;100850.13;6343052;28;20440;-69
2023/08/28 06:55:38;;;;;;;14.80;7.93;;;;;;;13.35;100.00;100855.41;6329371;28;20052;-69
2023/08/28 06:58:39;;;;;;;12.68;7.45;;;;;;;13.42;100.00;100859.38;6329813;28;20044;-69
2023/08/28 07:01:43;;;;;;;13.63;7.45;;;;;;;13.44;100.00;100855.69;6335010;28;20474;-69
2023/08/28 07:04:44;;;;;;;13.57;7.47;;;;;;;13.44;100.00;100858.34;6339217;28;20106;-69
2023/08/28 07:07:46;;;;;;;13.60;7.85;;;;;;;13.55;100.00;100862.06;6345464;28;20055;-68
2023/08/28 07:10:47;;;;;;;18.48;8.30;;;;;;;13.47;100.00;100854.63;6354632;28;20052;-69
2023/08/28 07:13:48;;;;;;;14.65;8.00;;;;;;;13.55;100.00;100854.16;6354864;28;20051;-69
2023/08/28 07:16:51;;;;;;;14.27;7.13;;;;;;;13.65;100.00;100860.53;6354329;28;20070;-69
2023/08/28 07:19:53;;;;;;;13.65;7.80;;;;;;;13.71;100.00;100855.69;6354784;28;20044;-69
2023/08/28 07:22:54;;;;;;;12.35;6.57;;;;;;;13.78;100.00;100858.81;6354520;28;20048;-69
2023/08/28 07:25:56;;;;;;;14.18;6.28;;;;;;;13.84;100.00;100862.81;6354136;28;20047;-69
2023/08/28 07:28:58;;;;;;;13.93;7.55;;;;;;;13.90;100.00;100867.72;6336251;28;20048;-69
2023/08/28 07:32:00;;;;;;;13.40;7.00;;;;;;;13.93;100.00;100868.34;6320755;28;20048;-70
2023/08/28 07:35:02;;;;;;;10.43;6.50;;;;;;;13.98;100.00;100869.84;6325246;28;20043;-69
2023/08/28 07:38:05;;;;;;;9.00;5.57;;;;;;;14.06;100.00;100864.91;6332560;28;20051;-69
2023/08/28 07:41:06;;;;;;;11.90;6.72;;;;;;;14.15;100.00;100872.25;6328718;28;20044;-70
2023/08/28 07:44:08;;;;;;;11.48;6.35;;;;;;;14.19;100.00;100876.38;6328512;28;20664;-69
2023/08/28 07:47:12;;;;;;;9.25;5.80;;;;;;;14.25;100.00;100875.13;6327830;28;20056;-69
2023/08/28 07:50:14;;;;;;;8.60;5.00;;;;;;;14.30;100.00;100878.28;6327063;28;20056;-69
2023/08/28 07:53:15;;;;;;;10.02;5.70;;;;;;;14.32;100.00;100877.25;6335656;28;20043;-70
2023/08/28 07:56:16;;;;;;;7.38;5.22;;;;;;;14.40;100.00;100871.47;6337489;28;20428;-69
2023/08/28 07:59:18;;;;;;;9.43;4.80;;;;;;;14.51;100.00;100870.75;6339179;28;20043;-69
2023/08/28 08:02:21;;;;;;;8.05;4.10;;;;;;;14.59;100.00;100873.75;6333748;28;20043;-69
2023/08/28 08:05:22;;;;;;;9.43;4.85;;;;;;;14.66;100.00;100873.19;6335850;28;20458;-69
2023/08/28 08:08:24;;;;;;;7.90;4.85;;;;;;;14.71;100.00;100875.53;6336426;28;20039;-70
2023/08/28 08:11:25;;;;;;;10.80;4.88;;;;;;;14.74;100.00;100863.91;6327960;28;20051;-69
2023/08/28 08:14:26;;;;;;;9.20;5.07;;;;;;;14.82;100.00;100853.63;6335241;28;20055;-69
2023/08/28 08:17:29;;;;;;;8.75;4.60;;;;;;;14.86;100.00;100850.69;6325599;28;20044;-69
2023/08/28 08:20:31;;;;;;;5.70;3.28;;;;;;;14.95;100.00;100850.03;6319522;28;20055;-69
2023/08/28 08:23:33;;;;;;;9.63;3.08;;;;;;;15.02;100.00;100852.22;6330237;28;20044;-68
2023/08/28 08:26:34;;;;;;;7.55;3.03;;;;;;;15.07;100.00;100853.59;6321639;28;20150;-70
2023/08/28 08:29:36;;;;;;;4.53;2.67;;;;;;;15.19;100.00;100846.59;6332189;28;20040;-70
2023/08/28 08:32:38;;;;;;;3.53;2.88;;;;;;;15.18;100.00;100844.91;6335482;28;20149;-70
2023/08/28 08:35:40;;;;;;;4.45;2.17;;;;;;;15.27;100.00;100854.00;6337815;28;20052;-70
2023/08/28 08:38:42;;;;;;;4.50;2.50;;;;;;;15.34;100.00;100855.25;6336904;28;20363;-70
2023/08/28 08:41:43;;;;;;;3.63;2.38;;;;;;;15.39;100.00;100848.66;6327284;28;20044;-70
2023/08/28 08:44:45;;;;;;;3.28;1.90;;;;;;;15.45;100.00;100842.94;6326761;28;20066;-70
2023/08/28 08:47:51;;;;;;;2.97;1.98;;;;;;;15.50;100.00;100853.19;6327274;28;20052;-69
2023/08/28 08:50:56;;;;;;;6.32;2.35;;;;;;;15.58;100.00;100850.84;6343346;28;20442;-69
2023/08/28 08:54:04;;;;;;;6.43;2.17;;;;;;;15.62;100.00;100857.59;6352285;28;20361;-70
2023/08/28 08:57:10;;;;;;;2.47;1.65;;;;;;;15.67;100.00;100855.50;6351899;28;20059;-69
2023/08/28 09:00:15;;;;;;;4.00;1.92;;;;;;;15.80;100.00;100859.88;6329187;28;20045;-69
2023/08/28 09:03:18;;;;;;;9.55;2.42;;;;;;;15.80;100.00;100859.88;6342580;28;20044;-70
2023/08/28 09:06:20;;;;;;;2.70;1.70;;;;;;;15.84;100.00;100861.38;6343218;28;20058;-69
2023/08/28 09:09:23;;;;;;;2.25;1.38;;;;;;;15.93;100.00;100855.38;6350022;28;20148;-69
2023/08/28 09:12:24;;;;;;;2.05;1.35;;;;;;;15.96;100.00;100853.34;6343142;28;20469;-68
2023/08/28 09:15:26;;;;;;;2.45;1.50;;;;;;;16.00;100.00;100859.28;6351434;28;20050;-69
2023/08/28 09:18:28;;;;;;;2.45;1.52;;;;;;;16.04;100.00;100844.84;6351493;28;20067;-68
2023/08/28 09:21:35;;;;;;;3.45;1.45;;;;;;;16.15;100.00;100852.81;6340357;28;20055;-69
2023/08/28 09:24:37;;;;;;;3.47;1.10;;;;;;;16.30;100.00;100855.28;6348276;28;20040;-68
2023/08/28 09:27:40;;;;;;;1.90;1.20;;;;;;;16.41;100.00;100845.56;6351490;28;20043;-68
2023/08/28 09:30:42;;;;;;;6.68;1.58;;;;;;;16.47;100.00;100850.38;6351112;28;20052;-68
2023/08/28 09:33:46;;;;;;;1.95;1.08;;;;;;;16.51;100.00;100850.16;6339028;28;20047;-67
2023/08/28 09:36:47;;;;;;;2.45;1.05;;;;;;;16.51;100.00;100855.47;6321076;28;20064;-67
2023/08/28 09:39:55;;;;;;;2.65;1.77;;;;;;;16.50;100.00;100857.28;6337756;28;20043;-67
2023/08/28 09:42:56;;;;;;;1.30;0.98;;;;;;;16.60;100.00;100868.88;6328712;28;20051;-68
2023/08/28 09:46:00;;;;;;;1.92;0.82;;;;;;;16.62;100.00;100874.91;6339804;28;20044;-68
2023/08/28 09:49:04;;;;;;;2.65;0.80;;;;;;;16.57;100.00;100869.09;6350752;28;20600;-68
2023/08/28 09:52:06;;;;;;;2.45;0.80;;;;;;;16.50;100.00;100878.50;6344877;28;20035;-69
2023/08/28 09:55:09;;;;;;;1.50;0.93;;;;;;;16.51;100.00;100877.53;6321562;28;20348;-68
2023/08/28 09:58:12;;;;;;;1.67;0.95;;;;;;;16.68;100.00;100876.25;6331245;28;20135;-68
2023/08/28 10:01:13;;;;;;;3.80;1.65;;;;;;;16.70;100.00;100885.78;6339442;28;20345;-67
2023/08/28 10:04:20;;;;;;;1.48;0.80;;;;;;;16.67;100.00;100882.53;6344584;28;20177;-68
2023/08/28 10:07:24;;;;;;;2.45;0.80;;;;;;;16.69;100.00;100880.59;6342468;28;20063;-68
2023/08/28 10:10:26;;;;;;;1.33;1.10;;;;;;;16.79;100.00;100881.59;6333048;28;20047;-69
2023/08/28 10:13:30;;;;;;;1.75;1.10;;;;;;;16.79;100.00;100872.78;6346529;28;20043;-69
2023/08/28 10:16:35;;;;;;;1.63;0.98;;;;;;;16.82;100.00;100869.91;6326234;28;20133;-69
2023/08/28 10:19:43;;;;;;;1.13;0.98;;;;;;;16.85;100.00;100864.34;6325787;28;20044;-69
2023/08/28 10:22:47;;;;;;;0.68;0.60;;;;;;;16.89;100.00;100860.50;6325036;28;20044;-68
2023/08/28 10:25:51;;;;;;;1.75;0.70;;;;;;;16.90;100.00;100865.69;6324790;28;20333;-69
2023/08/28 10:28:54;;;;;;;1.20;0.70;;;;;;;17.05;100.00;100866.31;6324950;28;20040;-69
2023/08/28 10:31:57;;;;;;;1.15;0.70;;;;;;;17.14;100.00;100851.47;6330624;28;20101;-70
2023/08/28 10:35:02;;;;;;;1.33;0.60;;;;;;;17.19;100.00;100841.31;6324429;28;20040;-69
2023/08/28 10:38:04;;;;;;;1.88;0.82;;;;;;;17.29;100.00;100846.72;6341887;28;20059;-69
2023/08/28 10:41:06;;;;;;;1.65;0.65;;;;;;;17.38;100.00;100840.69;6350149;28;20047;-70
2023/08/28 10:44:09;;;;;;;1.35;0.57;;;;;;;17.39;100.00;100835.22;6341204;28;20067;-70
2023/08/28 10:47:15;;;;;;;0.80;0.50;;;;;;;17.40;100.00;100839.59;6342087;28;20109;-69
2023/08/28 10:50:18;;;;;;;0.50;0.50;;;;;;;17.38;100.00;100836.19;6327940;28;20052;-70
2023/08/28 10:53:20;;;;;;;0.95;0.40;;;;;;;17.37;100.00;100844.31;6325489;28;20553;-69
2023/08/28 10:56:21;;;;;;;0.30;0.30;;;;;;;17.31;100.00;100837.69;6340904;28;20051;-68
2023/08/28 10:59:24;;;;;;;0.52;0.50;;;;;;;17.34;100.00;100836.56;6349194;28;20050;-68
2023/08/28 11:02:25;;;;;;;1.08;0.60;;;;;;;17.40;100.00;100839.59;6349876;28;20063;-69
2023/08/28 11:05:28;;;;;;;2.80;0.40;;;;;;;17.48;100.00;100834.47;6334301;28;20043;-68
2023/08/28 11:08:30;;;;;;;1.15;0.65;;;;;;;17.60;100.00;100821.19;6334627;28;20067;-68
2023/08/28 11:11:31;;;;;;;0.30;0.30;;;;;;;17.65;100.00;100822.50;6337619;28;20130;-69
2023/08/28 11:14:34;;;;;;;0.90;0.52;;;;;;;17.74;100.00;100829.75;6334489;28;20066;-70
2023/08/28 11:17:35;;;;;;;1.83;0.60;;;;;;;17.82;100.00;100829.13;6315673;28;20040;-69
2023/08/28 11:20:38;;;;;;;0.30;0.30;;;;;;;17.85;100.00;100841.31;6332112;28;20051;-69
2023/08/28 11:23:42;;;;;;;0.60;0.52;;;;;;;17.91;100.00;100848.78;6334796;28;20044;-68
2023/08/28 11:26:44;;;;;;;0.50;0.50;;;;;;;17.88;100.00;100847.22;6342298;28;20050;-69
2023/08/28 11:29:45;;;;;;;3.83;0.93;;;;;;;17.89;100.00;100843.56;6342432;28;20051;-69
2023/08/28 11:32:51;;;;;;;0.70;0.60;;;;;;;17.94;100.00;100840.53;6347555;28;20054;-69
2023/08/28 11:35:58;;;;;;;0.50;0.50;;;;;;;17.90;100.00;100855.09;6345132;28;20489;-69
2023/08/28 11:38:59;;;;;;;0.80;0.50;;;;;;;17.88;100.00;100855.19;6329735;28;20056;-70
2023/08/28 11:42:01;;;;;;;1.42;0.52;;;;;;;17.78;100.00;100851.59;6336621;28;20044;-79
2023/08/28 11:45:04;;;;;;;0.40;0.40;;;;;;;17.90;100.00;100847.94;6345806;28;20043;-70
2023/08/28 11:48:06;;;;;;;3.25;0.60;;;;;;;18.17;100.00;100836.00;6333943;28;20118;-70
2023/08/28 11:51:10;;;;;;;1.77;0.30;;;;;;;18.44;100.00;100833.66;6317358;28;20440;-79
2023/08/28 11:54:11;;;;;;;0.77;0.55;;;;;;;18.58;100.00;100831.66;6320715;28;20101;-70
2023/08/28 11:57:16;;;;;;;2.70;0.60;;;;;;;18.82;100.00;100844.69;6353132;28;20058;-70
2023/08/28 12:00:18;;;;;;;1.38;0.80;;;;;;;18.83;100.00;100849.03;6352900;28;20061;-69
2023/08/28 12:03:20;;;;;;;0.45;0.40;;;;;;;18.75;100.00;100858.50;6348833;28;20058;-70
2023/08/28 12:06:23;;;;;;;3.72;0.80;;;;;;;18.62;100.00;100857.00;6320663;28;20044;-70
2023/08/28 12:09:25;;;;;;;1.90;0.57;;;;;;;18.48;100.00;100844.88;6339285;28;20051;-70
2023/08/28 12:12:26;;;;;;;1.67;0.52;;;;;;;18.43;100.00;100849.75;6337188;28;20351;-70
2023/08/28 12:15:32;;;;;;;1.05;0.50;;;;;;;18.61;100.00;100848.16;6340809;28;20050;-70
2023/08/28 12:18:43;;;;;;;0.50;0.50;;;;;;;18.75;100.00;100850.53;6341929;28;20060;-70
2023/08/28 12:21:45;;;;;;;1.27;0.60;;;;;;;18.96;100.00;100858.50;6352959;28;20055;-70
2023/08/28 12:24:48;;;;;;;0.47;0.47;;;;;;;19.05;100.00;100850.69;6346573;28;20043;-70
2023/08/28 12:27:49;;;;;;;1.58;0.50;;;;;;;19.21;100.00;100843.88;6342828;28;20048;-70
2023/08/28 12:30:52;;;;;;;0.85;0.50;;;;;;;19.43;100.00;100855.28;6347053;28;20062;-72
2023/08/28 12:33:55;;;;;;;0.90;0.63;;;;;;;19.71;100.00;100848.34;6343150;28;20048;-70
2023/08/28 12:37:04;;;;;;;0.52;0.52;;;;;;;19.67;100.00;100852.31;6345329;28;20348;-70
2023/08/28 12:40:11;;;;;;;1.25;0.75;;;;;;;19.67;100.00;100855.81;6335505;28;20055;-70
2023/08/28 12:43:14;;;;;;;0.93;0.50;;;;;;;19.91;100.00;100866.06;6331097;28;20058;-73
2023/08/28 12:46:15;;;;;;;0.70;0.70;;;;;;;19.91;100.00;100868.75;6343199;28;20052;-73
2023/08/28 12:49:17;;;;;;;1.65;0.60;;;;;;;19.80;100.00;100860.84;6344918;28;20055;-70
2023/08/28 12:52:20;;;;;;;1.27;0.43;;;;;;;19.71;100.00;100845.69;6324979;28;20052;-70
2023/08/28 12:55:21;;;;;;;0.90;0.40;;;;;;;19.69;100.00;100819.16;6326589;28;20055;-70
2023/08/28 12:58:23;;;;;;;4.07;0.50;;;;;;;19.69;100.00;100823.66;6330058;28;20044;-70
2023/08/28 13:01:24;;;;;;;1.02;0.57;;;;;;;19.95;100.00;100821.28;6343381;28;20063;-70
2023/08/28 13:04:26;;;;;;;1.00;0.55;;;;;;;20.14;91.47;100831.13;6351993;28;20047;-71
2023/08/28 13:07:29;;;;;;;0.52;0.52;;;;;;;19.87;88.92;100830.00;6351572;28;20474;-74
2023/08/28 13:10:30;;;;;;;1.25;0.65;;;;;;;19.70;100.00;100823.50;6351647;28;20383;-73
2023/08/28 13:13:32;;;;;;;1.48;0.65;;;;;;;19.56;100.00;100820.38;6343289;28;20071;-72
2023/08/28 13:16:34;;;;;;;1.95;0.70;;;;;;;19.43;100.00;100824.13;6342944;28;20050;-72
2023/08/28 13:19:35;;;;;;;0.65;0.65;;;;;;;19.29;100.00;100816.53;6351661;28;20050;-73
2023/08/28 13:22:38;;;;;;;8.77;1.75;;;;;;;19.24;100.00;100818.78;6345827;28;20054;-72
2023/08/28 13:25:39;;;;;;;0.65;0.60;;;;;;;19.47;100.00;100822.88;6342601;28;20043;-70
2023/08/28 13:28:41;;;;;;;0.85;0.70;;;;;;;19.91;98.37;100826.06;6345535;28;20344;-73
2023/08/28 13:31:43;;;;;;;3.70;0.60;;;;;;;19.95;99.01;100821.28;6325952;28;20129;-73
2023/08/28 13:34:44;;;;;;;1.27;0.50;;;;;;;19.69;97.64;100821.00;6324305;28;20063;-72
2023/08/28 13:37:47;;;;;;;0.70;0.60;;;;;;;19.51;100.00;100812.78;6332590;28;20051;-72
2023/08/28 13:40:48;;;;;;;3.63;0.60;;;;;;;19.44;97.76;100809.84;6325735;28;20055;-72
2023/08/28 13:43:50;;;;;;;0.40;0.40;;;;;;;19.37;100.00;100802.53;6325311;28;20051;-70
2023/08/28 13:46:52;;;;;;;0.60;0.60;;;;;;;19.41;100.00;100807.44;6325372;28;20044;-72
2023/08/28 13:49:53;;;;;;;1.02;0.60;;;;;;;19.82;97.77;100802.91;6325772;28;20044;-72
2023/08/28 13:52:56;;;;;;;1.35;0.80;;;;;;;20.27;97.79;100808.47;6325581;28;20056;-73
2023/08/28 13:55:57;;;;;;;0.90;0.77;;;;;;;20.46;92.47;100818.28;6325447;28;20048;-72
2023/08/28 13:58:59;;;;;;;1.20;0.52;;;;;;;20.57;89.76;100813.78;6325594;28;20048;-72